| time (UTC) | temp C | wind direction | speed KPH | gust KPH | rain 1hr cm | rain 24hr cm | rain mn cm | humidity % | barometer mb |
| 20260504100537 | 15 | 344 | 1.6 | 16.1 | 0.00 | 0.91 | 0.00 | 100 | 1014.9 |
| 20260504081529 | 15 | 57 | 3.2 | 17.7 | 0.00 | 0.91 | 0.00 | 100 | 1014.7 |
| 20260504081031 | 15 | 30 | 6.4 | 16.1 | 0.00 | 0.91 | 0.00 | 100 | 1014.8 |
| 20260504080526 | 15 | 67 | 3.2 | 19.3 | 0.00 | 0.91 | 0.00 | 100 | 1014.8 |
| 20260504050506 | 15 | 360 | 8.0 | 22.5 | 0.00 | 0.91 | 0.00 | 100 | 1016.8 |
| 20260504050002 | 15 | 43 | 9.7 | 20.9 | 0.00 | 0.91 | 0.91 | 100 | 1016.9 |
| 20260504045502 | 15 | 61 | 9.7 | 20.9 | 0.00 | 0.91 | 0.91 | 100 | 1017.1 |
| 20260504045002 | 15 | 64 | 11.3 | 29.0 | 0.00 | 0.91 | 0.91 | 100 | 1017.1 |
| 20260504044502 | 15 | 50 | 8.0 | 29.0 | 0.00 | 0.91 | 0.91 | 100 | 1017.1 |
| 20260504044003 | 15 | 86 | 9.7 | 25.7 | 0.00 | 0.91 | 0.91 | 100 | 1017.1 |
| 20260504043502 | 15 | 58 | 11.3 | 20.9 | 0.00 | 0.91 | 0.91 | 100 | 1017.0 |
| 20260504043002 | 15 | 96 | 8.0 | 19.3 | 0.00 | 0.91 | 0.91 | 100 | 1016.8 |
| 20260504042559 | 15 | 87 | 9.7 | 22.5 | 0.00 | 0.91 | 0.91 | 100 | 1016.8 |
| 20260504042059 | 15 | 111 | 8.0 | 22.5 | 0.00 | 0.91 | 0.91 | 100 | 1016.8 |
| 20260504041600 | 15 | 67 | 6.4 | 20.9 | 0.00 | 0.91 | 0.91 | 100 | 1016.7 |
| 20260504041059 | 15 | 105 | 6.4 | 20.9 | 0.00 | 0.91 | 0.91 | 100 | 1016.6 |
| 20260504040559 | 15 | 63 | 4.8 | 16.1 | 0.00 | 0.91 | 0.91 | 100 | 1016.6 |
| 20260504040105 | 15 | 52 | 3.2 | 14.5 | 0.00 | 0.91 | 0.91 | 100 | 1016.6 |
| 20260504035558 | 15 | 57 | 3.2 | 14.5 | 0.00 | 0.91 | 0.91 | 100 | 1016.8 |
| 20260504035101 | 15 | 76 | 1.6 | 9.7 | 0.00 | 0.91 | 0.91 | 100 | 1016.8 |
| 20260504034559 | 15 | 30 | 1.6 | 9.7 | 0.00 | 0.91 | 0.91 | 100 | 1016.7 |
| 20260504034058 | 15 | 36 | 3.2 | 9.7 | 0.00 | 0.91 | 0.91 | 100 | 1016.7 |
| 20260504033558 | 15 | 36 | 0.0 | 12.9 | 0.00 | 0.91 | 0.91 | 100 | 1016.5 |
| 20260504033058 | 15 | 355 | 1.6 | 12.9 | 0.00 | 0.91 | 0.91 | 100 | 1016.4 |
| 20260504032558 | 15 | 63 | 3.2 | 17.7 | 0.00 | 0.91 | 0.91 | 100 | 1016.3 |
| 20260504032101 | 15 | 66 | 1.6 | 17.7 | 0.00 | 0.91 | 0.91 | 100 | 1016.4 |
| 20260504031628 | 15 | 41 | 3.2 | 17.7 | 0.00 | 0.91 | 0.91 | 100 | 1016.5 |
| 20260504031057 | 15 | 19 | 3.2 | 17.7 | 0.00 | 0.91 | 0.91 | 100 | 1016.5 |
| 20260504030557 | 16 | 34 | 3.2 | 12.9 | 0.03 | 0.91 | 0.91 | 100 | 1016.6 |
| 20260504030057 | 16 | 59 | 1.6 | 20.9 | 0.05 | 0.91 | 0.91 | 100 | 1016.5 |
| 20260504025557 | 16 | 50 | 3.2 | 20.9 | 0.05 | 0.91 | 0.91 | 100 | 1016.4 |
| 20260504025057 | 16 | 28 | 4.8 | 16.1 | 0.08 | 0.91 | 0.91 | 100 | 1016.2 |
| 20260504024556 | 16 | 58 | 0.0 | 11.3 | 0.13 | 0.91 | 0.91 | 100 | 1016.1 |
| 20260504024056 | 15 | 90 | 4.8 | 12.9 | 0.36 | 0.91 | 0.91 | 100 | 1016.1 |
| 20260504023556 | 15 | 82 | 6.4 | 16.1 | 0.66 | 0.91 | 0.91 | 100 | 1016.2 |
| 20260504023058 | 15 | 83 | 4.8 | 16.1 | 0.79 | 0.91 | 0.91 | 100 | 1016.3 |
| 20260504022556 | 15 | 88 | 9.7 | 16.1 | 0.91 | 0.91 | 0.91 | 100 | 1016.4 |
| 20260504022055 | 15 | 84 | 8.0 | 16.1 | 0.91 | 0.91 | 0.91 | 100 | 1016.4 |
| 20260504021608 | 15 | 104 | 6.4 | 19.3 | 0.91 | 0.91 | 0.91 | 100 | 1016.4 |
| 20260504021057 | 15 | 72 | 8.0 | 25.7 | 0.91 | 0.91 | 0.91 | 100 | 1016.3 |
| 20260504020556 | 15 | 86 | 9.7 | 29.0 | 0.89 | 0.89 | 0.89 | 100 | 1016.1 |
| 20260504020100 | 14 | 92 | 19.3 | 29.0 | 0.89 | 0.89 | 0.89 | 100 | 1016.3 |
| 20260504015555 | 14 | 60 | 19.3 | 27.4 | 0.89 | 0.89 | 0.89 | 100 | 1016.3 |
| 20260504015054 | 15 | 105 | 17.7 | 27.4 | 0.84 | 0.84 | 0.84 | 100 | 1016.4 |
| 20260504014553 | 15 | 95 | 14.5 | 57.9 | 0.79 | 0.79 | 0.79 | 100 | 1016.6 |
| 20260504014050 | 15 | 89 | 27.4 | 75.6 | 0.53 | 0.53 | 0.53 | 100 | 1016.5 |
| 20260504013550 | 16 | 84 | 49.9 | 75.6 | 0.23 | 0.23 | 0.23 | 100 | 1015.4 |
| 20260504013514 | 17 | 64 | 45.1 | 75.6 | 0.23 | 0.23 | 0.23 | 100 | 1015.5 |
| 20260504013012 | 20 | 31 | 20.9 | 37.0 | 0.00 | 0.00 | 0.00 | 100 | 1015.8 |
| 20260504012549 | 20 | 9 | 8.0 | 20.9 | 0.00 | 0.00 | 0.00 | 100 | 1015.7 |
| 20260504012048 | 20 | 355 | 8.0 | 17.7 | 0.00 | 0.00 | 0.00 | 100 | 1015.5 |
| 20260504011550 | 20 | 61 | 4.8 | 16.1 | 0.00 | 0.00 | 0.00 | 100 | 1015.3 |
| 20260504011048 | 20 | 46 | 4.8 | 11.3 | 0.00 | 0.00 | 0.00 | 100 | 1015.3 |
| 20260504010547 | 20 | 12 | 4.8 | 11.3 | 0.00 | 0.00 | 0.00 | 100 | 1015.2 |
| 20260504010047 | 20 | 96 | 1.6 | 12.9 | 0.00 | 0.00 | 0.00 | 100 | 1015.1 |
| 20260504005547 | 20 | 292 | 4.8 | 17.7 | 0.00 | 0.00 | 0.00 | 100 | 1015.1 |
| 20260504005047 | 20 | 28 | 6.4 | 17.7 | 0.00 | 0.00 | 0.00 | 100 | 1015.0 |
| 20260504004547 | 21 | 56 | 4.8 | 14.5 | 0.00 | 0.00 | 0.00 | 100 | 1014.9 |
| 20260504004047 | 21 | 5 | 4.8 | 14.5 | 0.00 | 0.00 | 0.00 | 100 | 1014.7 |
| 20260504003546 | 21 | 38 | 4.8 | 16.1 | 0.00 | 0.00 | 0.00 | 100 | 1014.8 |
| 20260504003048 | 21 | 73 | 8.0 | 16.1 | 0.00 | 0.00 | 0.00 | 100 | 1014.6 |
| 20260504002546 | 21 | 46 | 6.4 | 16.1 | 0.00 | 0.00 | 0.00 | 100 | 1014.6 |
| 20260504002046 | 21 | 59 | 8.0 | 20.9 | 0.00 | 0.00 | 0.00 | 100 | 1014.5 |
| 20260504001604 | 21 | 65 | 8.0 | 20.9 | 0.00 | 0.00 | 0.00 | 100 | 1014.5 |
| 20260504001045 | 21 | 62 | 1.6 | 11.3 | 0.00 | 0.00 | 0.00 | 100 | 1014.4 |
| 20260504000545 | 21 | 329 | 4.8 | 19.3 | 0.00 | 0.00 | 0.00 | 100 | 1014.3 |
| 20260504000045 | 21 | 21 | 3.2 | 19.3 | 0.00 | 0.00 | 0.00 | 100 | 1014.1 |
| 20260503235545 | 21 | 59 | 6.4 | 17.7 | 0.00 | 0.00 | 0.00 | 100 | 1014.0 |
| 20260503235047 | 21 | 46 | 4.8 | 16.1 | 0.00 | 0.00 | 0.00 | 100 | 1013.8 |
| 20260503234545 | 21 | 83 | 6.4 | 17.7 | 0.00 | 0.00 | 0.00 | 100 | 1013.7 |
| 20260503234045 | 21 | 67 | 6.4 | 17.7 | 0.00 | 0.00 | 0.00 | 100 | 1013.5 |
| 20260503233544 | 21 | 71 | 4.8 | 11.3 | 0.00 | 0.00 | 0.00 | 100 | 1013.5 |
| 20260503233045 | 21 | 79 | 4.8 | 16.1 | 0.00 | 0.00 | 0.00 | 100 | 1013.2 |
| 20260503232544 | 21 | 86 | 4.8 | 11.3 | 0.00 | 0.00 | 0.00 | 100 | 1013.3 |
| 20260503232044 | 22 | 61 | 6.4 | 14.5 | 0.00 | 0.00 | 0.00 | 100 | 1013.2 |
| 20260503231550 | 22 | 28 | 6.4 | 14.5 | 0.00 | 0.00 | 0.00 | 100 | 1013.0 |
| 20260503231044 | 22 | 19 | 0.0 | 8.0 | 0.00 | 0.00 | 0.00 | 100 | 1013.1 |
| 20260503230548 | 22 | 63 | 1.6 | 9.7 | 0.00 | 0.00 | 0.00 | 100 | 1013.2 |
| 20260503230046 | 22 | 34 | 4.8 | 9.7 | 0.00 | 0.00 | 0.00 | 100 | 1013.1 |
| 20260503225543 | 22 | 50 | 3.2 | 9.7 | 0.00 | 0.13 | 0.00 | 100 | 1012.9 |
| 20260503225043 | 22 | 55 | 3.2 | 16.1 | 0.00 | 0.13 | 0.00 | 100 | 1012.8 |
| 20260503224548 | 22 | 43 | 6.4 | 16.1 | 0.00 | 0.13 | 0.00 | 100 | 1012.7 |
| 20260503224044 | 22 | 22 | 4.8 | 12.9 | 0.00 | 0.13 | 0.00 | 100 | 1012.8 |
| 20260503223544 | 22 | 59 | 3.2 | 14.5 | 0.00 | 0.13 | 0.00 | 100 | 1012.9 |
| 20260503223044 | 22 | 5 | 8.0 | 14.5 | 0.00 | 0.13 | 0.00 | 100 | 1013.0 |
| 20260503222541 | 22 | 52 | 3.2 | 9.7 | 0.00 | 0.13 | 0.00 | 100 | 1013.0 |
| 20260503222041 | 22 | 355 | 1.6 | 6.4 | 0.00 | 0.13 | 0.00 | 100 | 1013.0 |
| 20260503221542 | 22 | 5 | 1.6 | 9.7 | 0.00 | 0.13 | 0.00 | 100 | 1012.8 |
| 20260503221043 | 22 | 19 | 3.2 | 9.7 | 0.00 | 0.13 | 0.00 | 100 | 1012.8 |
| 20260503220541 | 22 | 57 | 1.6 | 8.0 | 0.00 | 0.13 | 0.00 | 100 | 1012.9 |
| 20260503220041 | 22 | 285 | 3.2 | 9.7 | 0.00 | 0.13 | 0.00 | 100 | 1012.9 |
| 20260503215540 | 22 | 318 | 3.2 | 8.0 | 0.00 | 0.25 | 0.00 | 100 | 1013.0 |
| 20260503215040 | 22 | 304 | 1.6 | 4.8 | 0.00 | 0.25 | 0.00 | 100 | 1013.0 |
| 20260503214548 | 21 | 302 | 1.6 | 6.4 | 0.00 | 0.25 | 0.00 | 100 | 1013.0 |
| 20260503214039 | 21 | 302 | 3.2 | 6.4 | 0.00 | 0.25 | 0.00 | 100 | 1013.1 |
| 20260503213539 | 21 | 46 | 1.6 | 9.7 | 0.00 | 0.25 | 0.00 | 100 | 1013.1 |
| 20260503213101 | 21 | 33 | 3.2 | 9.7 | 0.00 | 0.25 | 0.00 | 100 | 1013.2 |
| 20260503212538 | 21 | 59 | 3.2 | 9.7 | 0.00 | 0.25 | 0.00 | 100 | 1013.3 |
| 20260503212038 | 21 | 78 | 4.8 | 12.9 | 0.00 | 0.25 | 0.00 | 100 | 1013.3 |
| 20260503211557 | 21 | 100 | 8.0 | 12.9 | 0.00 | 0.25 | 0.00 | 100 | 1013.4 |
| 20260503211042 | 21 | 100 | 4.8 | 14.5 | 0.00 | 0.25 | 0.00 | 100 | 1013.3 |
| 20260503210538 | 21 | 100 | 9.7 | 19.3 | 0.00 | 0.25 | 0.00 | 100 | 1013.3 |
| 20260503210038 | 21 | 107 | 12.9 | 24.1 | 0.00 | 0.25 | 0.00 | 100 | 1013.3 |
| 20260503205538 | 21 | 114 | 14.5 | 24.1 | 0.00 | 0.25 | 0.00 | 100 | 1013.3 |
| 20260503205041 | 22 | 99 | 4.8 | 12.9 | 0.00 | 0.25 | 0.00 | 100 | 1013.4 |
| 20260503204552 | 22 | 73 | 3.2 | 12.9 | 0.00 | 0.25 | 0.00 | 100 | 1013.3 |
| 20260503204039 | 22 | 98 | 4.8 | 12.9 | 0.00 | 0.25 | 0.00 | 100 | 1013.1 |
| 20260503203538 | 22 | 69 | 4.8 | 9.7 | 0.00 | 0.25 | 0.00 | 100 | 1013.2 |
| 20260503203039 | 22 | 78 | 3.2 | 9.7 | 0.00 | 0.25 | 0.00 | 100 | 1013.3 |
| 20260503202535 | 22 | 80 | 3.2 | 14.5 | 0.00 | 0.25 | 0.00 | 100 | 1013.2 |
| 20260503202035 | 22 | 42 | 4.8 | 14.5 | 0.00 | 0.25 | 0.00 | 100 | 1013.3 |
| 20260503201536 | 22 | 51 | 6.4 | 14.5 | 0.00 | 0.25 | 0.00 | 100 | 1013.5 |
| 20260503201035 | 22 | 79 | 6.4 | 14.5 | 0.00 | 0.25 | 0.00 | 100 | 1013.7 |
| 20260503200534 | 22 | 46 | 6.4 | 27.4 | 0.00 | 0.25 | 0.00 | 100 | 1013.7 |
| 20260503200035 | 22 | 61 | 4.8 | 27.4 | 0.00 | 0.25 | 0.00 | 100 | 1013.6 |
| 20260503195534 | 22 | 91 | 4.8 | 14.5 | 0.00 | 0.25 | 0.00 | 100 | 1013.5 |
| 20260503195034 | 22 | 54 | 4.8 | 16.1 | 0.00 | 0.25 | 0.00 | 100 | 1013.4 |
| 20260503194534 | 22 | 355 | 4.8 | 16.1 | 0.00 | 0.25 | 0.00 | 100 | 1013.3 |
| 20260503194034 | 22 | 5 | 6.4 | 19.3 | 0.00 | 0.25 | 0.00 | 100 | 1013.5 |
| 20260503193534 | 22 | 57 | 11.3 | 22.5 | 0.00 | 0.25 | 0.00 | 100 | 1013.7 |
| 20260503193034 | 22 | 32 | 11.3 | 22.5 | 0.00 | 0.25 | 0.00 | 100 | 1013.7 |
| 20260503192534 | 22 | 360 | 9.7 | 19.3 | 0.00 | 0.25 | 0.00 | 100 | 1013.4 |
| 20260503192033 | 22 | 355 | 9.7 | 17.7 | 0.00 | 0.25 | 0.00 | 100 | 1013.4 |
| 20260503191544 | 22 | 28 | 6.4 | 16.1 | 0.00 | 0.25 | 0.00 | 100 | 1013.4 |
| 20260503191032 | 22 | 355 | 8.0 | 16.1 | 0.00 | 0.25 | 0.00 | 100 | 1013.8 |
| 20260503190531 | 22 | 306 | 6.4 | 25.7 | 0.00 | 0.25 | 0.00 | 100 | 1013.9 |
| 20260503190034 | 22 | 360 | 8.0 | 25.7 | 0.00 | 0.25 | 0.00 | 100 | 1013.9 |
| 20260503185534 | 22 | 14 | 8.0 | 24.1 | 0.00 | 0.25 | 0.00 | 100 | 1013.7 |
| 20260503185034 | 22 | 19 | 6.4 | 16.1 | 0.00 | 0.25 | 0.00 | 100 | 1013.9 |
| 20260503184534 | 22 | 59 | 8.0 | 17.7 | 0.00 | 0.25 | 0.00 | 100 | 1014.0 |
| 20260503184031 | 23 | 360 | 6.4 | 16.1 | 0.00 | 0.25 | 0.00 | 100 | 1013.9 |
| 20260503183529 | 23 | 62 | 4.8 | 22.5 | 0.00 | 0.25 | 0.00 | 100 | 1013.9 |
| 20260503183039 | 23 | 22 | 8.0 | 22.5 | 0.00 | 0.25 | 0.00 | 100 | 1014.1 |
| 20260503182529 | 24 | 346 | 8.0 | 22.5 | 0.00 | 0.25 | 0.00 | 100 | 1014.1 |
| 20260503182030 | 24 | 360 | 6.4 | 25.7 | 0.00 | 0.25 | 0.00 | 100 | 1014.3 |
| 20260503181529 | 25 | 69 | 12.9 | 29.0 | 0.00 | 0.25 | 0.00 | 100 | 1014.4 |
| 20260503181029 | 24 | 5 | 12.9 | 29.0 | 0.00 | 0.25 | 0.00 | 100 | 1014.1 |
| 20260503180528 | 23 | 332 | 8.0 | 25.7 | 0.00 | 0.25 | 0.00 | 100 | 1014.1 |
| 20260503180033 | 23 | 355 | 6.4 | 20.9 | 0.00 | 0.25 | 0.00 | 100 | 1014.4 |
| 20260503175527 | 23 | 70 | 9.7 | 27.4 | 0.00 | 0.25 | 0.00 | 100 | 1014.6 |
| 20260503175027 | 23 | 30 | 16.1 | 27.4 | 0.00 | 0.25 | 0.00 | 100 | 1014.5 |
| 20260503174537 | 24 | 64 | 14.5 | 24.1 | 0.00 | 0.25 | 0.00 | 100 | 1014.6 |
| 20260503174027 | 24 | 40 | 6.4 | 20.9 | 0.00 | 0.25 | 0.00 | 100 | 1014.8 |
| 20260503173527 | 25 | 28 | 8.0 | 24.1 | 0.00 | 0.25 | 0.00 | 100 | 1014.9 |
| 20260503173027 | 25 | 11 | 6.4 | 24.1 | 0.00 | 0.25 | 0.00 | 100 | 1014.9 |
| 20260503172525 | 25 | 271 | 8.0 | 19.3 | 0.00 | 0.25 | 0.00 | 100 | 1015.0 |
| 20260503172025 | 25 | 341 | 9.7 | 22.5 | 0.00 | 0.25 | 0.00 | 100 | 1014.9 |
| 20260503171529 | 25 | 315 | 6.4 | 22.5 | 0.00 | 0.25 | 0.00 | 100 | 1014.9 |
| 20260503171031 | 25 | 28 | 8.0 | 20.9 | 0.00 | 0.25 | 0.00 | 100 | 1014.8 |
| 20260503170525 | 25 | 42 | 6.4 | 24.1 | 0.00 | 0.25 | 0.00 | 100 | 1015.0 |
| 20260503170126 | 25 | 324 | 11.3 | 24.1 | 0.00 | 0.25 | 0.00 | 100 | 1015.1 |
| 20260503151012 | 23 | 355 | 4.8 | 11.3 | 0.00 | 0.25 | 0.00 | 100 | 1015.3 |
| 20260503150514 | 23 | 68 | 0.0 | 14.5 | 0.00 | 0.25 | 0.00 | 100 | 1015.2 |
| 20260503131049 | 18 | 57 | 3.2 | 8.0 | 0.00 | 0.25 | 0.00 | 100 | 1015.5 |
| 20260503130549 | 17 | 57 | 3.2 | 16.1 | 0.00 | 0.25 | 0.00 | 100 | 1015.5 |
| 20260503110535 | 16 | 63 | 3.2 | 19.3 | 0.00 | 0.25 | 0.00 | 100 | 1015.1 |